Time;durP1;ratioP1;P1;durP2;ratioP2;P2;SDS_P1;SDS_P2;PMS_P1;PMS_P2;Temp;Humidity;BMP_temperature;BMP_pressure;BME280_temperature;BME280_humidity;BME280_pressure;Samples;Min_cycle;Max_cycle;Signal;HPM_P1;HPM_P2
2023/07/15 00:01:19;;;;;;;4.38;2.45;;;22.70;99.90;;;;;;5040281;28;20519;-83
2023/07/15 00:03:46;;;;;;;4.93;2.50;;;22.80;99.90;;;;;;5036427;28;20187;-83
2023/07/15 00:06:12;;;;;;;4.13;2.80;;;22.80;99.90;;;;;;5038584;28;20215;-82
2023/07/15 00:08:37;;;;;;;4.93;2.83;;;22.80;99.90;;;;;;5040303;28;20278;-82
2023/07/15 00:11:04;;;;;;;6.60;3.00;;;22.90;99.90;;;;;;5038703;28;20186;-82
2023/07/15 00:13:30;;;;;;;4.43;2.80;;;22.90;99.90;;;;;;5040769;28;20239;-83
2023/07/15 00:15:57;;;;;;;7.85;3.05;;;22.90;99.90;;;;;;5039883;28;20260;-83
2023/07/15 00:18:23;;;;;;;4.85;2.58;;;22.90;99.90;;;;;;5038864;28;20290;-84
2023/07/15 00:20:49;;;;;;;5.60;2.85;;;23.00;99.90;;;;;;5040150;28;20182;-85
2023/07/15 00:23:24;;;;;;;14.68;3.20;;;23.10;99.90;;;;;;5038598;28;20179;-84
2023/07/15 00:25:50;;;;;;;7.15;3.10;;;23.10;99.90;;;;;;5039186;28;20213;-85
2023/07/15 00:28:18;;;;;;;5.15;2.80;;;23.20;99.90;;;;;;5040519;28;20198;-84
2023/07/15 00:30:44;;;;;;;8.20;2.65;;;23.20;99.90;;;;;;5041200;28;20659;-85
2023/07/15 00:33:14;;;;;;;3.00;2.22;;;23.20;99.90;;;;;;5038623;28;20218;-85
2023/07/15 00:35:40;;;;;;;4.05;2.60;;;23.20;99.90;;;;;;5038777;28;20179;-85
2023/07/15 00:38:06;;;;;;;5.35;2.53;;;23.30;99.90;;;;;;5037655;28;20210;-85
2023/07/15 00:40:40;;;;;;;2.75;2.15;;;23.30;99.90;;;;;;5038249;28;20179;-85
2023/07/15 00:43:43;;;;;;;4.65;2.30;;;23.20;99.90;;;;;;5038203;28;20174;-85
2023/07/15 00:46:18;;;;;;;4.97;2.40;;;23.20;99.90;;;;;;5038008;28;20249;-85
2023/07/15 00:49:01;;;;;;;4.60;2.30;;;23.10;99.90;;;;;;5040785;28;20167;-85
2023/07/15 00:51:29;;;;;;;5.57;2.92;;;23.10;99.90;;;;;;5039747;28;20703;-86
2023/07/15 00:53:55;;;;;;;4.10;2.50;;;22.90;99.90;;;;;;5039624;28;20179;-85
2023/07/15 00:56:22;;;;;;;4.18;2.97;;;22.90;99.90;;;;;;5040478;28;20206;-85
2023/07/15 00:58:49;;;;;;;3.67;2.80;;;22.80;99.90;;;;;;5038955;28;20179;-86
2023/07/15 01:01:15;;;;;;;3.40;2.33;;;22.90;99.90;;;;;;5040404;28;20205;-85
2023/07/15 01:03:41;;;;;;;4.53;2.55;;;22.80;99.90;;;;;;5038969;28;20207;-85
2023/07/15 01:06:07;;;;;;;4.55;2.75;;;22.70;99.90;;;;;;5039616;28;20617;-85
2023/07/15 01:08:33;;;;;;;5.35;2.50;;;22.70;99.90;;;;;;5039141;28;20202;-86
2023/07/15 01:10:59;;;;;;;3.40;2.40;;;22.70;99.90;;;;;;5038575;28;20663;-85
2023/07/15 01:13:24;;;;;;;4.18;2.63;;;22.70;99.90;;;;;;5038777;28;20262;-85
2023/07/15 01:15:50;;;;;;;4.55;2.50;;;22.70;99.90;;;;;;5038563;28;20270;-85
2023/07/15 01:18:17;;;;;;;2.63;2.25;;;22.70;99.90;;;;;;5037976;28;20183;-85
2023/07/15 01:20:43;;;;;;;3.88;2.58;;;22.70;99.90;;;;;;5039942;28;20550;-85
2023/07/15 01:23:08;;;;;;;3.35;1.90;;;22.60;99.90;;;;;;5038005;28;20175;-85
2023/07/15 01:25:34;;;;;;;3.70;2.20;;;22.60;99.90;;;;;;5037837;28;20194;-85
2023/07/15 01:28:00;;;;;;;3.35;2.38;;;22.70;99.90;;;;;;5039888;28;20230;-85
2023/07/15 01:30:26;;;;;;;4.60;2.65;;;22.80;99.90;;;;;;5040023;28;20257;-86
2023/07/15 01:32:51;;;;;;;3.58;2.30;;;22.60;99.90;;;;;;5038860;28;20258;-85
2023/07/15 01:35:17;;;;;;;4.15;2.78;;;22.50;99.90;;;;;;5039462;28;20191;-85
2023/07/15 01:37:43;;;;;;;3.38;2.20;;;22.20;99.90;;;;;;5038136;28;20620;-85
2023/07/15 01:40:09;;;;;;;5.13;2.30;;;21.90;99.90;;;;;;5038945;28;20189;-85
2023/07/15 01:42:35;;;;;;;4.72;2.95;;;21.70;99.90;;;;;;5038819;28;20171;-85
2023/07/15 01:45:04;;;;;;;2.60;2.25;;;21.60;99.90;;;;;;5039788;28;20175;-85
2023/07/15 01:47:30;;;;;;;4.22;2.40;;;21.50;99.90;;;;;;5042651;28;20213;-85
2023/07/15 01:49:56;;;;;;;3.63;2.30;;;21.40;99.90;;;;;;5039783;28;20180;-84
2023/07/15 01:52:21;;;;;;;5.40;2.90;;;21.30;99.90;;;;;;5039017;28;20175;-84
2023/07/15 01:54:47;;;;;;;4.63;2.85;;;21.10;99.90;;;;;;5037685;28;20175;-84
2023/07/15 01:57:13;;;;;;;4.85;2.80;;;21.00;99.90;;;;;;5037738;28;20203;-85
2023/07/15 01:59:39;;;;;;;5.35;2.55;;;21.00;99.90;;;;;;5037619;28;20159;-85
2023/07/15 02:02:05;;;;;;;5.95;2.42;;;20.90;99.90;;;;;;5037543;28;20186;-85
2023/07/15 02:04:30;;;;;;;4.65;2.58;;;20.90;99.90;;;;;;5039318;28;20198;-85
2023/07/15 02:06:56;;;;;;;3.00;2.25;;;21.10;99.90;;;;;;5043341;28;20210;-85
2023/07/15 02:09:22;;;;;;;3.40;2.42;;;21.30;99.90;;;;;;5063410;28;20182;-85
2023/07/15 02:11:49;;;;;;;5.53;2.80;;;21.20;99.90;;;;;;5063175;28;20666;-85
2023/07/15 02:14:14;;;;;;;3.25;2.55;;;21.10;99.90;;;;;;5062532;28;20170;-85
2023/07/15 02:16:40;;;;;;;4.00;2.38;;;21.00;99.90;;;;;;5061382;28;20293;-85
2023/07/15 02:19:06;;;;;;;5.55;2.15;;;20.90;99.90;;;;;;5060852;28;20277;-84
2023/07/15 02:21:32;;;;;;;4.13;2.55;;;20.80;99.90;;;;;;5060715;28;20178;-85
2023/07/15 02:23:59;;;;;;;3.88;2.80;;;20.70;99.90;;;;;;5060845;28;20232;-85
2023/07/15 02:26:25;;;;;;;5.85;2.60;;;20.60;99.90;;;;;;5061608;28;20211;-85
2023/07/15 02:28:50;;;;;;;3.80;2.67;;;20.50;99.90;;;;;;5060989;28;20175;-85
2023/07/15 02:31:16;;;;;;;5.10;2.40;;;20.40;99.90;;;;;;5062404;28;20183;-85
2023/07/15 02:33:42;;;;;;;2.72;2.38;;;20.40;99.90;;;;;;5062700;28;20190;-82
2023/07/15 02:36:08;;;;;;;3.25;2.50;;;20.30;99.90;;;;;;5062748;28;20224;-82
2023/07/15 02:38:34;;;;;;;4.20;2.65;;;20.30;99.90;;;;;;5049200;28;20207;-82
2023/07/15 02:40:59;;;;;;;4.13;2.60;;;20.20;99.90;;;;;;5041319;28;20231;-83
2023/07/15 02:43:25;;;;;;;5.18;2.60;;;20.10;99.90;;;;;;5041098;28;20705;-83
2023/07/15 02:45:52;;;;;;;4.00;2.45;;;20.00;99.90;;;;;;5040708;28;20218;-82
2023/07/15 02:48:21;;;;;;;4.28;2.67;;;20.00;99.90;;;;;;5040410;28;20203;-83
2023/07/15 02:50:56;;;;;;;3.95;2.40;;;20.00;99.90;;;;;;5041631;28;20269;-82
2023/07/15 02:53:22;;;;;;;4.82;2.42;;;20.00;99.90;;;;;;5040804;28;20183;-82
2023/07/15 02:55:50;;;;;;;4.60;2.85;;;20.10;99.90;;;;;;5041012;28;20202;-82
2023/07/15 02:58:17;;;;;;;3.97;2.38;;;20.10;99.90;;;;;;5040886;28;20643;-82
2023/07/15 03:00:43;;;;;;;3.30;2.50;;;20.00;99.90;;;;;;5040800;28;20174;-82
2023/07/15 03:03:10;;;;;;;5.00;2.92;;;20.00;99.90;;;;;;5040289;28;20182;-82
2023/07/15 03:05:36;;;;;;;2.60;2.30;;;19.90;99.90;;;;;;5041015;28;20236;-83
2023/07/15 03:08:02;;;;;;;5.85;2.70;;;19.80;99.90;;;;;;5040109;28;20282;-83
2023/07/15 03:10:28;;;;;;;5.88;2.60;;;19.90;99.90;;;;;;5041362;28;20648;-82
2023/07/15 03:12:54;;;;;;;4.25;2.67;;;19.90;99.90;;;;;;5040255;28;20643;-83
2023/07/15 03:15:20;;;;;;;3.47;2.60;;;19.80;99.90;;;;;;5040169;28;20175;-82
2023/07/15 03:17:46;;;;;;;3.10;2.55;;;19.70;99.90;;;;;;5040607;28;20203;-82
2023/07/15 03:20:14;;;;;;;2.97;2.30;;;19.60;99.90;;;;;;5040451;28;20175;-82
2023/07/15 03:22:41;;;;;;;4.47;2.22;;;19.60;99.90;;;;;;5040740;28;20203;-82
2023/07/15 03:25:09;;;;;;;2.53;2.33;;;19.60;99.90;;;;;;5039632;28;20246;-82
2023/07/15 03:27:35;;;;;;;4.50;3.00;;;19.40;99.90;;;;;;5040233;28;20202;-82
2023/07/15 03:30:01;;;;;;;5.97;2.58;;;19.40;99.90;;;;;;5040897;28;20175;-82
2023/07/15 03:32:26;;;;;;;3.03;2.38;;;19.40;99.90;;;;;;5040845;28;20176;-82
2023/07/15 03:34:52;;;;;;;4.85;2.47;;;19.30;99.90;;;;;;5039840;28;20179;-82
2023/07/15 03:37:18;;;;;;;5.65;2.92;;;19.30;99.90;;;;;;5040077;28;20210;-83
2023/07/15 03:39:44;;;;;;;3.78;2.65;;;19.20;99.90;;;;;;5039846;28;20648;-83
2023/07/15 03:42:09;;;;;;;4.20;2.58;;;19.20;99.90;;;;;;5039800;28;20659;-82
2023/07/15 03:44:35;;;;;;;3.17;2.60;;;19.10;99.90;;;;;;5041010;28;20171;-82
2023/07/15 03:47:01;;;;;;;2.70;2.40;;;19.00;99.90;;;;;;5039977;28;20264;-84
2023/07/15 03:49:27;;;;;;;3.80;2.70;;;19.00;99.90;;;;;;5038936;28;20522;-82
2023/07/15 03:51:52;;;;;;;4.32;2.95;;;19.10;99.90;;;;;;5038917;28;20648;-83
2023/07/15 03:54:18;;;;;;;4.10;2.63;;;19.00;99.90;;;;;;5038850;28;20183;-82
2023/07/15 03:56:44;;;;;;;4.65;2.85;;;18.90;99.90;;;;;;5039279;28;20226;-83
2023/07/15 03:59:09;;;;;;;3.42;2.67;;;18.90;99.90;;;;;;5039132;28;20598;-83
2023/07/15 04:01:36;;;;;;;3.50;2.80;;;18.90;99.90;;;;;;5038971;28;20628;-83
2023/07/15 04:04:08;;;;;;;4.13;2.70;;;18.90;99.90;;;;;;5039085;28;20190;-82
2023/07/15 04:06:35;;;;;;;5.35;2.45;;;18.80;99.90;;;;;;5038462;28;20211;-82
2023/07/15 04:09:00;;;;;;;4.43;2.55;;;18.80;99.90;;;;;;5038163;28;20233;-82
2023/07/15 04:11:26;;;;;;;3.90;2.88;;;18.80;99.90;;;;;;5039138;28;20171;-82
2023/07/15 04:13:52;;;;;;;4.75;2.70;;;18.70;99.90;;;;;;5037964;28;20205;-82
2023/07/15 04:16:18;;;;;;;5.68;2.90;;;18.80;99.90;;;;;;5037722;28;20266;-82
2023/07/15 04:18:44;;;;;;;3.83;2.60;;;18.80;99.90;;;;;;5040365;28;20254;-83
2023/07/15 04:21:09;;;;;;;6.25;2.55;;;18.80;99.90;;;;;;5045282;28;20187;-83
2023/07/15 04:23:35;;;;;;;5.03;2.45;;;18.70;99.90;;;;;;5052681;28;20187;-83
2023/07/15 04:26:02;;;;;;;4.03;2.38;;;18.80;99.90;;;;;;5040696;28;20215;-83
2023/07/15 04:28:27;;;;;;;5.78;2.92;;;18.80;99.90;;;;;;5038486;28;20199;-83
2023/07/15 04:30:53;;;;;;;5.32;2.60;;;18.80;99.90;;;;;;5039570;28;20186;-83
2023/07/15 04:33:19;;;;;;;5.28;2.67;;;18.90;99.90;;;;;;5039565;28;20248;-83
2023/07/15 04:35:45;;;;;;;3.75;2.60;;;18.90;99.90;;;;;;5040293;28;20182;-83
2023/07/15 04:38:11;;;;;;;2.92;2.60;;;19.00;99.90;;;;;;5041155;28;20195;-82
2023/07/15 04:40:37;;;;;;;3.50;2.63;;;19.00;99.90;;;;;;5040807;28;20186;-82
2023/07/15 04:43:03;;;;;;;3.78;2.75;;;19.00;99.90;;;;;;5040822;28;20263;-83
2023/07/15 04:45:29;;;;;;;3.78;2.67;;;19.00;99.90;;;;;;5041585;28;20550;-83
2023/07/15 04:47:55;;;;;;;5.60;2.72;;;19.00;99.90;;;;;;5040288;28;20225;-82
2023/07/15 04:50:21;;;;;;;4.45;3.15;;;19.10;99.90;;;;;;5040301;28;20235;-83
2023/07/15 04:52:47;;;;;;;8.25;3.10;;;19.10;99.90;;;;;;5042973;28;20202;-82
2023/07/15 04:55:14;;;;;;;6.55;2.75;;;19.20;99.90;;;;;;5044907;28;20175;-83
2023/07/15 04:57:40;;;;;;;3.28;2.55;;;19.20;99.90;;;;;;5037477;28;20702;-84
2023/07/15 05:00:11;;;;;;;2.97;2.60;;;19.30;99.90;;;;;;5039161;28;20167;-84
2023/07/15 05:02:39;;;;;;;4.18;2.85;;;19.40;99.90;;;;;;5037579;28;20179;-84
2023/07/15 05:05:05;;;;;;;3.53;2.75;;;19.60;99.90;;;;;;5037214;28;20195;-84
2023/07/15 05:07:34;;;;;;;4.45;2.72;;;19.60;99.90;;;;;;5037466;28;20222;-84
2023/07/15 05:10:00;;;;;;;3.85;2.45;;;19.60;99.90;;;;;;5037097;28;20226;-84
2023/07/15 05:12:26;;;;;;;4.28;2.72;;;19.70;99.90;;;;;;5037475;28;20175;-84
2023/07/15 05:14:52;;;;;;;3.78;2.85;;;19.80;99.90;;;;;;5039024;28;20195;-84
2023/07/15 05:17:18;;;;;;;5.43;2.92;;;19.90;99.90;;;;;;5037176;28;20199;-84
2023/07/15 05:19:44;;;;;;;2.63;2.42;;;19.90;99.90;;;;;;5037319;28;20229;-84
2023/07/15 05:22:10;;;;;;;4.43;2.75;;;20.00;99.90;;;;;;5038057;28;20182;-84
2023/07/15 05:24:35;;;;;;;3.35;2.90;;;20.10;99.90;;;;;;5036804;28;20201;-84
2023/07/15 05:27:01;;;;;;;3.58;2.75;;;20.20;99.90;;;;;;5038278;28;20253;-84
2023/07/15 05:29:27;;;;;;;2.90;2.42;;;20.30;99.90;;;;;;5036987;28;20179;-84
2023/07/15 05:31:53;;;;;;;3.85;2.50;;;20.30;99.90;;;;;;5038332;28;20221;-83
2023/07/15 05:34:19;;;;;;;2.97;2.55;;;20.40;99.90;;;;;;5038609;28;20155;-84
2023/07/15 05:36:45;;;;;;;2.90;2.60;;;20.50;99.90;;;;;;5036380;28;20252;-84
2023/07/15 05:39:11;;;;;;;3.35;2.38;;;20.60;99.90;;;;;;5040423;28;20182;-83
2023/07/15 05:41:37;;;;;;;3.00;2.58;;;20.70;99.90;;;;;;5040547;28;20674;-84
2023/07/15 05:44:03;;;;;;;2.65;2.45;;;20.90;99.90;;;;;;5041129;28;20179;-84
2023/07/15 05:46:29;;;;;;;3.60;2.50;;;21.00;99.90;;;;;;5040921;28;20566;-86
2023/07/15 05:48:55;;;;;;;3.72;2.33;;;21.20;99.90;;;;;;5040955;28;20253;-80
2023/07/15 05:51:21;;;;;;;4.20;3.00;;;21.30;99.90;;;;;;5041924;28;20171;-81
2023/07/15 05:53:47;;;;;;;6.05;3.63;;;21.40;99.90;;;;;;5040141;28;20270;-80
2023/07/15 05:56:13;;;;;;;4.13;2.60;;;21.50;99.90;;;;;;5041289;28;20199;-80
2023/07/15 05:58:38;;;;;;;3.30;2.80;;;21.70;99.90;;;;;;5041625;28;20183;-80
2023/07/15 06:01:04;;;;;;;4.90;2.85;;;21.80;99.90;;;;;;5041494;28;20239;-80
2023/07/15 06:03:30;;;;;;;6.90;3.50;;;21.90;99.90;;;;;;5042106;28;20175;-80
2023/07/15 06:06:03;;;;;;;3.97;2.47;;;22.10;99.90;;;;;;5038320;28;20214;-79
2023/07/15 06:08:29;;;;;;;2.83;2.00;;;22.30;99.90;;;;;;5038492;28;20203;-80
2023/07/15 06:10:55;;;;;;;3.08;2.00;;;22.50;99.90;;;;;;5038745;28;20171;-80
2023/07/15 06:13:20;;;;;;;4.32;2.08;;;22.70;99.90;;;;;;5037615;28;20178;-80
2023/07/15 06:15:53;;;;;;;3.67;2.28;;;22.90;99.90;;;;;;5037343;28;20179;-80
2023/07/15 06:18:19;;;;;;;5.97;2.60;;;23.20;99.90;;;;;;5038439;28;20187;-80
2023/07/15 06:20:47;;;;;;;5.32;2.47;;;23.50;99.90;;;;;;5037108;28;20178;-80
2023/07/15 06:23:13;;;;;;;5.53;2.58;;;23.70;99.90;;;;;;5038389;28;20186;-82
2023/07/15 06:25:40;;;;;;;3.75;2.20;;;23.70;99.90;;;;;;5038536;28;20181;-81
2023/07/15 06:28:06;;;;;;;4.13;2.47;;;23.90;99.90;;;;;;5037421;28;20191;-81
2023/07/15 06:30:32;;;;;;;5.10;2.20;;;24.10;99.90;;;;;;5038712;28;20174;-81
2023/07/15 06:32:58;;;;;;;3.38;2.28;;;24.30;99.90;;;;;;5037697;28;20628;-81
2023/07/15 06:35:24;;;;;;;3.05;1.90;;;24.40;99.90;;;;;;5039012;28;20229;-81
2023/07/15 06:37:50;;;;;;;5.20;2.50;;;24.50;99.90;;;;;;5041589;28;20212;-80
2023/07/15 06:40:17;;;;;;;2.53;2.28;;;24.60;99.90;;;;;;5055930;28;20558;-81
2023/07/15 06:42:44;;;;;;;5.13;2.47;;;24.80;99.90;;;;;;5058491;28;20189;-86
2023/07/15 06:45:10;;;;;;;2.97;2.60;;;24.80;99.90;;;;;;5056965;28;20182;-85
2023/07/15 06:47:36;;;;;;;3.80;2.22;;;24.80;99.90;;;;;;5057959;28;20306;-85
2023/07/15 06:50:02;;;;;;;5.20;2.30;;;25.00;99.90;;;;;;5057464;28;20659;-85
2023/07/15 06:52:28;;;;;;;4.93;2.35;;;25.10;99.90;;;;;;5057885;28;20170;-85
2023/07/15 06:54:53;;;;;;;3.80;2.53;;;25.20;99.90;;;;;;5057910;28;20182;-85
2023/07/15 06:57:19;;;;;;;2.85;2.20;;;25.20;99.90;;;;;;5056419;28;20202;-85
2023/07/15 06:59:47;;;;;;;4.60;2.10;;;25.30;99.90;;;;;;5057483;28;20674;-85
2023/07/15 07:02:13;;;;;;;3.03;2.15;;;25.40;99.90;;;;;;5056287;28;20190;-85
2023/07/15 07:04:39;;;;;;;2.78;2.13;;;25.40;99.90;;;;;;5055381;28;20256;-84
2023/07/15 07:07:05;;;;;;;3.72;2.15;;;25.50;99.90;;;;;;5057163;28;20276;-85
2023/07/15 07:09:31;;;;;;;4.60;2.30;;;25.50;99.90;;;;;;5056071;28;20296;-85
2023/07/15 07:11:58;;;;;;;5.70;2.50;;;25.60;99.90;;;;;;5056099;28;20189;-85
2023/07/15 07:14:24;;;;;;;3.40;2.05;;;25.70;99.90;;;;;;5056341;28;20178;-84
2023/07/15 07:16:50;;;;;;;2.90;2.10;;;25.80;99.90;;;;;;5056378;28;20202;-84
2023/07/15 07:19:15;;;;;;;4.97;2.33;;;26.00;99.90;;;;;;5056570;28;20724;-84
2023/07/15 07:21:42;;;;;;;3.55;2.00;;;26.00;99.90;;;;;;5057676;28;20178;-83
2023/07/15 07:24:10;;;;;;;2.35;1.85;;;25.90;99.90;;;;;;5056338;28;20646;-84
2023/07/15 07:26:36;;;;;;;2.95;1.92;;;25.90;99.90;;;;;;5055883;28;20210;-83
2023/07/15 07:29:02;;;;;;;2.10;1.90;;;26.10;99.90;;;;;;5055786;28;20213;-86
2023/07/15 07:31:28;;;;;;;5.75;2.08;;;26.20;99.90;;;;;;5056350;28;20182;-84
2023/07/15 07:33:54;;;;;;;3.10;1.95;;;26.40;99.90;;;;;;5057344;28;20581;-83
2023/07/15 07:36:19;;;;;;;4.20;2.10;;;26.50;99.90;;;;;;5057244;28;20635;-84
2023/07/15 07:38:45;;;;;;;3.83;2.10;;;26.50;99.90;;;;;;5056133;28;20269;-83
2023/07/15 07:41:12;;;;;;;4.00;1.98;;;26.60;99.90;;;;;;5058899;28;20209;-83
2023/07/15 07:43:39;;;;;;;7.18;2.15;;;26.70;99.90;;;;;;5065018;28;20194;-83
2023/07/15 07:46:07;;;;;;;3.40;2.10;;;26.70;99.90;;;;;;5061555;28;20293;-83
2023/07/15 07:48:33;;;;;;;3.53;2.20;;;26.60;99.90;;;;;;5058855;28;20255;-83
2023/07/15 07:51:00;;;;;;;4.85;2.00;;;26.40;99.90;;;;;;5058473;28;20261;-83
2023/07/15 07:53:26;;;;;;;4.93;2.30;;;26.20;99.90;;;;;;5056640;28;20549;-82
2023/07/15 07:55:52;;;;;;;2.88;2.13;;;26.00;99.90;;;;;;5055602;28;20184;-83
2023/07/15 07:58:18;;;;;;;5.60;2.28;;;25.90;99.90;;;;;;5056912;28;20204;-82
2023/07/15 08:00:44;;;;;;;3.70;2.20;;;25.80;99.90;;;;;;5056783;28;20246;-83
2023/07/15 08:03:10;;;;;;;4.40;2.10;;;25.80;99.90;;;;;;5055535;28;20231;-83
2023/07/15 08:05:47;;;;;;;2.90;2.20;;;25.70;99.90;;;;;;5055441;28;20198;-84
2023/07/15 08:08:14;;;;;;;3.60;2.33;;;25.60;99.90;;;;;;5055391;28;20205;-83
2023/07/15 08:10:40;;;;;;;2.58;2.08;;;25.60;99.90;;;;;;5055380;28;20589;-87
2023/07/15 08:13:07;;;;;;;4.60;2.20;;;25.50;99.90;;;;;;5055361;28;20201;-82
2023/07/15 08:15:36;;;;;;;3.47;2.20;;;25.50;99.90;;;;;;5055490;28;20545;-84
2023/07/15 08:18:03;;;;;;;2.83;2.00;;;25.50;99.90;;;;;;5055722;28;20662;-85
2023/07/15 08:20:29;;;;;;;2.97;2.10;;;25.60;99.90;;;;;;5057124;28;20664;-82
2023/07/15 08:22:56;;;;;;;2.88;2.10;;;25.70;99.90;;;;;;5058757;28;20545;-82
2023/07/15 08:25:21;;;;;;;4.20;2.28;;;25.70;99.90;;;;;;5057033;28;20175;-82
2023/07/15 08:27:47;;;;;;;5.25;2.22;;;25.80;99.90;;;;;;5056587;28;20210;-83
2023/07/15 08:30:13;;;;;;;2.35;2.05;;;25.70;99.90;;;;;;5055357;28;20303;-84
2023/07/15 08:32:39;;;;;;;4.40;2.13;;;25.70;99.90;;;;;;5055906;28;20205;-83
2023/07/15 08:35:05;;;;;;;3.03;2.10;;;25.70;99.90;;;;;;5054776;28;20182;-83
2023/07/15 08:37:32;;;;;;;2.80;2.22;;;25.70;99.90;;;;;;5056094;28;20214;-82
2023/07/15 08:39:58;;;;;;;3.72;2.22;;;25.60;99.90;;;;;;5055213;28;20185;-83
2023/07/15 08:42:24;;;;;;;3.45;2.28;;;25.60;99.90;;;;;;5055311;28;20179;-84
2023/07/15 08:44:51;;;;;;;5.43;2.38;;;25.50;99.90;;;;;;5055220;28;20182;-83
2023/07/15 08:47:21;;;;;;;3.80;2.30;;;25.40;99.90;;;;;;5057248;28;20221;-86
2023/07/15 08:49:53;;;;;;;4.10;2.55;;;25.30;99.90;;;;;;5056313;28;20700;-84
2023/07/15 08:52:21;;;;;;;3.67;2.25;;;25.20;99.90;;;;;;5055043;28;20661;-83
2023/07/15 08:54:51;;;;;;;3.83;2.50;;;25.00;99.90;;;;;;5055970;28;20659;-85
2023/07/15 08:57:22;;;;;;;2.65;1.95;;;25.00;99.90;;;;;;5055059;28;20206;-84
2023/07/15 08:59:50;;;;;;;2.55;2.08;;;24.80;99.90;;;;;;5056095;28;20163;-86
2023/07/15 09:02:16;;;;;;;5.18;2.30;;;24.70;99.90;;;;;;5055375;28;20548;-83
2023/07/15 09:04:42;;;;;;;4.47;2.50;;;24.60;99.90;;;;;;5054881;28;20209;-85
2023/07/15 09:07:08;;;;;;;6.90;2.47;;;24.60;99.90;;;;;;5055763;28;20213;-85
2023/07/15 09:09:35;;;;;;;7.65;2.78;;;24.50;99.90;;;;;;5053667;28;20186;-84
2023/07/15 09:12:06;;;;;;;4.07;2.58;;;24.40;99.90;;;;;;5054658;28;20216;-85
2023/07/15 09:14:37;;;;;;;3.03;2.20;;;24.30;99.90;;;;;;5054584;28;20190;-87
2023/07/15 09:17:03;;;;;;;3.78;2.60;;;24.20;99.90;;;;;;5054784;28;20194;-82
2023/07/15 09:19:33;;;;;;;4.45;2.60;;;24.00;99.90;;;;;;5054684;28;20190;-85
2023/07/15 09:22:07;;;;;;;6.75;3.03;;;23.80;99.90;;;;;;5054633;28;20182;-84
2023/07/15 09:24:33;;;;;;;4.95;2.97;;;23.50;99.90;;;;;;5054717;28;20177;-82
2023/07/15 09:27:00;;;;;;;4.32;2.80;;;23.20;99.90;;;;;;5054306;28;20289;-82
2023/07/15 09:29:26;;;;;;;5.13;3.15;;;22.80;99.90;;;;;;5052964;28;20619;-82
2023/07/15 09:31:52;;;;;;;6.40;3.20;;;22.30;99.90;;;;;;5053722;28;20182;-81
2023/07/15 09:34:18;;;;;;;5.93;3.30;;;21.90;99.90;;;;;;5055111;28;20177;-81
2023/07/15 09:36:44;;;;;;;7.30;3.40;;;21.60;99.90;;;;;;5053778;28;20201;-81
2023/07/15 09:39:15;;;;;;;5.25;3.25;;;21.30;99.90;;;;;;5054689;28;20182;-80
2023/07/15 09:41:41;;;;;;;9.25;3.60;;;21.00;99.90;;;;;;5053498;28;20265;-80
2023/07/15 09:44:08;;;;;;;8.07;4.18;;;20.80;99.90;;;;;;5054711;28;20265;-81
2023/07/15 09:46:34;;;;;;;9.93;3.63;;;20.70;99.90;;;;;;5053347;28;20214;-81
2023/07/15 09:49:00;;;;;;;6.75;3.88;;;20.60;99.90;;;;;;5055031;28;20178;-82
2023/07/15 09:51:26;;;;;;;5.47;3.72;;;20.60;99.90;;;;;;5053772;28;20263;-81
2023/07/15 09:53:56;;;;;;;4.47;3.33;;;20.50;99.90;;;;;;5054698;28;20175;-81
2023/07/15 09:56:28;;;;;;;4.72;3.30;;;20.50;99.90;;;;;;5052953;28;20265;-80
2023/07/15 09:58:56;;;;;;;6.53;3.47;;;20.40;99.90;;;;;;5053124;28;20276;-82
2023/07/15 10:02:06;;;;;;;4.60;3.38;;;20.40;99.90;;;;;;5053261;28;20698;-80
2023/07/15 10:04:37;;;;;;;4.10;3.45;;;20.40;99.90;;;;;;5053965;28;20209;-80
2023/07/15 10:07:04;;;;;;;7.60;3.78;;;20.30;99.90;;;;;;5053061;28;20206;-81
2023/07/15 10:09:33;;;;;;;4.65;3.40;;;20.30;99.90;;;;;;5052933;28;20635;-80
2023/07/15 10:12:00;;;;;;;7.68;3.65;;;20.20;99.90;;;;;;5053170;28;20229;-81
2023/07/15 10:14:27;;;;;;;6.30;3.92;;;20.10;99.90;;;;;;5053502;28;20257;-82
2023/07/15 10:17:10;;;;;;;6.15;3.95;;;20.00;99.90;;;;;;5054356;28;20658;-80
2023/07/15 10:19:40;;;;;;;7.88;3.92;;;19.90;99.90;;;;;;5054524;28;20626;-81
2023/07/15 10:22:07;;;;;;;4.63;3.88;;;19.80;99.90;;;;;;5054103;28;20178;-79
2023/07/15 10:24:33;;;;;;;6.13;3.45;;;19.70;99.90;;;;;;5052652;28;20182;-81
2023/07/15 10:27:17;;;;;;;4.38;3.58;;;19.60;99.90;;;;;;5055995;28;20749;-81
2023/07/15 10:29:43;;;;;;;4.43;3.60;;;19.60;99.90;;;;;;5056838;28;20224;-81
2023/07/15 10:32:13;;;;;;;6.95;4.22;;;19.60;99.90;;;;;;5057823;28;20174;-81
2023/07/15 10:34:57;;;;;;;5.78;3.92;;;19.60;99.90;;;;;;5057973;28;20181;-81
2023/07/15 10:37:23;;;;;;;6.50;4.13;;;19.60;99.90;;;;;;5056781;28;20206;-81
2023/07/15 10:39:49;;;;;;;9.98;5.13;;;19.70;99.90;;;;;;5056757;28;20182;-81
2023/07/15 10:42:17;;;;;;;5.10;3.63;;;19.80;99.90;;;;;;5060383;28;20171;-82
2023/07/15 10:44:53;;;;;;;4.70;3.90;;;19.80;99.90;;;;;;5061814;28;20179;-82
2023/07/15 10:47:19;;;;;;;12.90;10.07;;;19.90;99.90;;;;;;5058823;28;20210;-81
2023/07/15 10:49:45;;;;;;;6.70;4.43;;;19.90;99.90;;;;;;5058776;28;20171;-82
2023/07/15 10:52:11;;;;;;;6.55;4.78;;;19.80;99.90;;;;;;5057927;28;20545;-82
2023/07/15 10:54:40;;;;;;;12.95;9.77;;;19.80;99.90;;;;;;5056825;28;20228;-82
2023/07/15 10:57:14;;;;;;;7.18;5.30;;;19.80;99.90;;;;;;5056848;28;20201;-82
2023/07/15 10:59:45;;;;;;;30.50;22.05;;;19.90;99.90;;;;;;5058176;28;20159;-82
2023/07/15 11:02:12;;;;;;;55.78;39.78;;;20.00;99.90;;;;;;5057742;28;20525;-82
2023/07/15 11:04:40;;;;;;;17.48;12.50;;;20.20;99.90;;;;;;5057471;28;20189;-82
2023/07/15 11:07:09;;;;;;;21.67;15.10;;;20.30;99.90;;;;;;5056419;28;20213;-82
2023/07/15 11:09:39;;;;;;;8.57;5.50;;;20.50;99.90;;;;;;5056929;28;20215;-82
2023/07/15 11:12:10;;;;;;;4.75;3.20;;;20.60;99.90;;;;;;5055950;28;20175;-81
2023/07/15 11:14:42;;;;;;;4.28;3.33;;;20.60;99.90;;;;;;5056003;28;20244;-82
2023/07/15 11:17:08;;;;;;;5.78;3.10;;;20.60;99.90;;;;;;5055762;28;20209;-82
2023/07/15 11:19:34;;;;;;;5.88;2.80;;;20.70;99.90;;;;;;5057056;28;20175;-82
2023/07/15 11:22:04;;;;;;;4.88;3.13;;;20.70;99.90;;;;;;5057309;28;20190;-82
2023/07/15 11:24:29;;;;;;;4.13;3.00;;;20.80;99.90;;;;;;5057253;28;20166;-83
2023/07/15 11:27:00;;;;;;;3.83;2.90;;;20.80;99.90;;;;;;5056825;28;20202;-81
2023/07/15 11:29:26;;;;;;;3.97;3.17;;;20.90;99.90;;;;;;5057343;28;20170;-82
2023/07/15 11:31:53;;;;;;;12.30;7.88;;;21.00;99.90;;;;;;5055519;28;20184;-82
2023/07/15 11:34:24;;;;;;;16.88;13.38;;;21.20;99.90;;;;;;5055643;28;20174;-82
2023/07/15 11:36:51;;;;;;;14.05;11.82;;;21.30;99.90;;;;;;5056522;28;20198;-82
2023/07/15 11:39:18;;;;;;;19.45;14.40;;;21.40;99.90;;;;;;5055714;28;20655;-82
2023/07/15 11:41:44;;;;;;;6.22;4.28;;;21.40;99.90;;;;;;5055229;28;20658;-82
2023/07/15 11:44:20;;;;;;;13.27;10.25;;;21.40;99.90;;;;;;5056831;28;20187;-82
2023/07/15 11:46:46;;;;;;;25.88;19.35;;;21.50;99.90;;;;;;5056608;28;20547;-82
2023/07/15 11:49:18;;;;;;;17.70;13.05;;;21.60;99.90;;;;;;5055107;28;20269;-82
2023/07/15 11:51:44;;;;;;;12.45;8.27;;;21.80;99.90;;;;;;5054513;28;20205;-82
2023/07/15 11:54:12;;;;;;;8.65;5.68;;;22.10;99.90;;;;;;5056653;28;20183;-81
2023/07/15 11:56:43;;;;;;;6.20;4.35;;;22.30;99.90;;;;;;5060071;28;20221;-81
2023/07/15 11:59:33;;;;;;;3.30;2.58;;;22.50;99.90;;;;;;5064342;28;20178;-79
2023/07/15 12:02:02;;;;;;;3.72;2.90;;;22.80;99.90;;;;;;5065445;28;20179;-79
2023/07/15 12:04:29;;;;;;;2.85;2.33;;;23.00;99.90;;;;;;5066783;28;20715;-79
2023/07/15 12:06:54;;;;;;;4.18;2.85;;;23.20;99.90;;;;;;5067770;28;20206;-79
2023/07/15 12:09:21;;;;;;;3.15;2.45;;;23.50;99.90;;;;;;5067462;28;20189;-80
2023/07/15 12:11:49;;;;;;;2.85;2.55;;;23.60;99.90;;;;;;5075745;28;20175;-79
2023/07/15 12:14:16;;;;;;;5.43;2.67;;;23.70;99.90;;;;;;5061442;28;20220;-81
2023/07/15 12:16:43;;;;;;;3.17;2.50;;;23.70;99.90;;;;;;5058719;28;20190;-80
2023/07/15 12:19:12;;;;;;;4.75;2.78;;;23.60;99.90;;;;;;5058158;28;20175;-81
2023/07/15 12:21:38;;;;;;;3.40;2.47;;;23.70;99.90;;;;;;5057709;28;20308;-80
2023/07/15 12:24:04;;;;;;;3.28;2.80;;;23.80;99.90;;;;;;5056176;28;20178;-80
2023/07/15 12:26:30;;;;;;;4.10;2.97;;;24.00;99.90;;;;;;5057199;28;20196;-81
2023/07/15 12:28:57;;;;;;;3.35;2.85;;;24.20;99.90;;;;;;5055944;28;20257;-81
2023/07/15 12:31:23;;;;;;;3.53;2.78;;;24.20;99.90;;;;;;5056978;28;20243;-84
2023/07/15 12:33:48;;;;;;;3.20;2.80;;;24.40;99.90;;;;;;5057002;28;20222;-84
2023/07/15 12:36:16;;;;;;;3.55;3.00;;;24.50;99.90;;;;;;5056011;28;20175;-81
2023/07/15 12:38:43;;;;;;;4.10;2.90;;;24.60;99.90;;;;;;5056477;28;20186;-82
2023/07/15 12:41:09;;;;;;;4.57;2.88;;;24.60;99.90;;;;;;5055348;28;20592;-81
2023/07/15 12:43:36;;;;;;;3.28;2.80;;;24.50;99.90;;;;;;5056197;28;20170;-81
2023/07/15 12:46:02;;;;;;;4.50;3.25;;;24.30;99.90;;;;;;5054871;28;20642;-80